Time;durP1;ratioP1;P1;durP2;ratioP2;P2;SDS_P1;SDS_P2;PMS_P1;PMS_P2;Temp;Humidity;BMP_temperature;BMP_pressure;BME280_temperature;BME280_humidity;BME280_pressure;Samples;Min_cycle;Max_cycle;Signal;HPM_P1;HPM_P2
2022/07/31 00:00:35;;;;;;;;;2.00;2.00;;;;;;;;4939224;28;45427;-72
2022/07/31 00:03:01;;;;;;;;;1.00;1.00;;;;;;;;4939523;28;45577;-73
2022/07/31 00:05:26;;;;;;;;;1.00;1.00;;;;;;;;4951862;28;45384;-73
2022/07/31 00:07:52;;;;;;;;;2.33;2.00;;;;;;;;4938521;28;46122;-73
2022/07/31 00:10:17;;;;;;;;;1.67;1.67;;;;;;;;4942721;28;45571;-72
2022/07/31 00:12:42;;;;;;;;;4.33;2.00;;;;;;;;4956472;28;45363;-72
2022/07/31 00:15:11;;;;;;;;;1.67;1.67;;;;;;;;4943982;28;45502;-73
2022/07/31 00:17:37;;;;;;;;;2.00;2.00;;;;;;;;4950110;28;46348;-73
2022/07/31 00:20:02;;;;;;;;;1.33;1.00;;;;;;;;4947171;28;45367;-73
2022/07/31 00:22:28;;;;;;;;;1.00;1.00;;;;;;;;4942322;28;45404;-73
2022/07/31 00:24:53;;;;;;;;;1.00;0.00;;;;;;;;4940121;28;45354;-73
2022/07/31 00:27:18;;;;;;;;;1.67;1.67;;;;;;;;4940366;28;47563;-73
2022/07/31 00:29:43;;;;;;;;;3.00;1.67;;;;;;;;4938912;28;45332;-77
2022/07/31 00:32:10;;;;;;;;;4.67;1.00;;;;;;;;4939360;28;45275;-77
2022/07/31 00:34:35;;;;;;;;;0.67;0.67;;;;;;;;4938403;28;45565;-76
2022/07/31 00:37:00;;;;;;;;;2.00;2.00;;;;;;;;4941469;28;46098;-76
2022/07/31 00:39:25;;;;;;;;;1.67;1.33;;;;;;;;4942361;28;45408;-76
2022/07/31 00:41:51;;;;;;;;;1.00;1.00;;;;;;;;4946245;28;45366;-76
2022/07/31 00:44:16;;;;;;;;;2.00;2.00;;;;;;;;4943747;28;45514;-77
2022/07/31 00:46:41;;;;;;;;;2.67;2.67;;;;;;;;4946577;28;45413;-76
2022/07/31 00:49:08;;;;;;;;;1.33;1.33;;;;;;;;4944018;28;45383;-75
2022/07/31 00:51:34;;;;;;;;;1.00;1.00;;;;;;;;4938021;28;45407;-75
2022/07/31 00:53:59;;;;;;;;;2.67;1.00;;;;;;;;4940632;28;45332;-76
2022/07/31 00:56:24;;;;;;;;;2.00;2.00;;;;;;;;4956012;28;46836;-72
2022/07/31 00:58:50;;;;;;;;;1.33;1.00;;;;;;;;4956875;28;45362;-72
2022/07/31 01:01:15;;;;;;;;;2.00;2.00;;;;;;;;4955278;28;45383;-72
2022/07/31 01:03:40;;;;;;;;;2.00;2.00;;;;;;;;4957701;28;45497;-72
2022/07/31 01:06:06;;;;;;;;;1.33;1.33;;;;;;;;4957127;28;46097;-72
2022/07/31 01:08:31;;;;;;;;;2.33;2.33;;;;;;;;4957697;28;45357;-72
2022/07/31 01:10:58;;;;;;;;;3.33;2.33;;;;;;;;4957464;28;45353;-74
2022/07/31 01:13:29;;;;;;;;;1.00;1.00;;;;;;;;4956796;28;45432;-73
2022/07/31 01:15:55;;;;;;;;;1.33;1.33;;;;;;;;4957414;28;46316;-72
2022/07/31 01:18:22;;;;;;;;;1.67;1.33;;;;;;;;4957154;28;45321;-72
2022/07/31 01:20:48;;;;;;;;;3.00;2.00;;;;;;;;4957825;28;45459;-73
2022/07/31 01:23:21;;;;;;;;;3.00;1.00;;;;;;;;4956815;28;45353;-72
2022/07/31 01:25:49;;;;;;;;;2.33;2.00;;;;;;;;4957055;28;46288;-73
2022/07/31 01:28:23;;;;;;;;;1.00;1.00;;;;;;;;4956936;28;45357;-73
2022/07/31 01:30:55;;;;;;;;;1.33;1.33;;;;;;;;4956945;28;45409;-73
2022/07/31 01:33:23;;;;;;;;;1.00;1.00;;;;;;;;4957420;28;45315;-73
2022/07/31 01:35:52;;;;;;;;;3.00;3.00;;;;;;;;4956548;28;46143;-73
2022/07/31 01:38:22;;;;;;;;;2.00;2.00;;;;;;;;4957053;28;45298;-73
2022/07/31 01:40:53;;;;;;;;;1.00;1.00;;;;;;;;4956819;28;45559;-73
2022/07/31 01:43:21;;;;;;;;;2.00;2.00;;;;;;;;4957012;28;45395;-73
2022/07/31 01:45:49;;;;;;;;;3.67;2.33;;;;;;;;4952106;28;45412;-73
2022/07/31 01:48:15;;;;;;;;;1.67;1.67;;;;;;;;4957626;28;45378;-73
2022/07/31 01:50:42;;;;;;;;;2.00;2.00;;;;;;;;4957526;28;45338;-73
2022/07/31 01:53:08;;;;;;;;;2.00;2.00;;;;;;;;4956857;28;45428;-73
2022/07/31 01:55:34;;;;;;;;;2.00;2.00;;;;;;;;4957037;28;45240;-73
2022/07/31 01:58:00;;;;;;;;;2.00;2.00;;;;;;;;4956300;28;45174;-73
2022/07/31 02:00:25;;;;;;;;;1.00;1.00;;;;;;;;4957429;28;45242;-73
2022/07/31 02:02:51;;;;;;;;;2.00;2.00;;;;;;;;4970554;28;45202;-73
2022/07/31 02:05:18;;;;;;;;;2.00;1.67;;;;;;;;4956789;28;46394;-73
2022/07/31 02:07:44;;;;;;;;;2.00;2.00;;;;;;;;4956737;28;45291;-73
2022/07/31 02:10:11;;;;;;;;;2.33;2.33;;;;;;;;4956250;28;45394;-73
2022/07/31 02:12:37;;;;;;;;;2.00;2.00;;;;;;;;4955114;28;45390;-73
2022/07/31 02:15:05;;;;;;;;;2.00;2.00;;;;;;;;4957027;28;46154;-73
2022/07/31 02:17:30;;;;;;;;;2.33;2.00;;;;;;;;4950814;28;45436;-73
2022/07/31 02:19:57;;;;;;;;;2.00;2.00;;;;;;;;4949540;28;45480;-73
2022/07/31 02:22:22;;;;;;;;;2.00;1.33;;;;;;;;4956898;28;45314;-72
2022/07/31 02:24:48;;;;;;;;;2.00;2.00;;;;;;;;4956606;28;45406;-73
2022/07/31 02:27:13;;;;;;;;;2.00;2.00;;;;;;;;4956411;28;45353;-73
2022/07/31 02:29:39;;;;;;;;;1.00;1.00;;;;;;;;4957097;28;45322;-73
2022/07/31 02:32:05;;;;;;;;;1.00;1.00;;;;;;;;4956393;28;45472;-73
2022/07/31 02:34:32;;;;;;;;;2.00;2.00;;;;;;;;4956321;28;45437;-73
2022/07/31 02:36:59;;;;;;;;;1.33;1.33;;;;;;;;4955945;28;45370;-73
2022/07/31 02:39:24;;;;;;;;;1.00;1.00;;;;;;;;4956358;28;45329;-73
2022/07/31 02:41:51;;;;;;;;;1.33;1.33;;;;;;;;4955507;28;45263;-73
2022/07/31 02:44:17;;;;;;;;;2.33;0.67;;;;;;;;4956405;28;45247;-73
2022/07/31 02:46:43;;;;;;;;;3.00;1.00;;;;;;;;4956297;28;45357;-74
2022/07/31 02:49:09;;;;;;;;;3.33;1.33;;;;;;;;4956448;28;45462;-73
2022/07/31 02:51:34;;;;;;;;;1.33;1.33;;;;;;;;4956374;28;45616;-73
2022/07/31 02:53:59;;;;;;;;;1.67;1.67;;;;;;;;4956045;28;45746;-73
2022/07/31 02:56:25;;;;;;;;;3.00;3.00;;;;;;;;4955965;28;45331;-73
2022/07/31 02:58:50;;;;;;;;;1.67;0.67;;;;;;;;4956043;28;45429;-73
2022/07/31 03:01:15;;;;;;;;;1.67;1.67;;;;;;;;4956128;28;45360;-73
2022/07/31 03:03:40;;;;;;;;;3.00;3.00;;;;;;;;4956037;28;46206;-74
2022/07/31 03:06:06;;;;;;;;;2.00;2.00;;;;;;;;4955992;28;45402;-73
2022/07/31 03:08:31;;;;;;;;;1.33;1.33;;;;;;;;4956346;28;45377;-73
2022/07/31 03:10:56;;;;;;;;;2.00;2.00;;;;;;;;4955878;28;45305;-73
2022/07/31 03:13:23;;;;;;;;;2.00;2.00;;;;;;;;4942423;28;45331;-74
2022/07/31 03:15:49;;;;;;;;;1.33;1.33;;;;;;;;4956224;28;45399;-73
2022/07/31 03:18:15;;;;;;;;;1.67;1.67;;;;;;;;4951833;28;45358;-73
2022/07/31 03:20:44;;;;;;;;;2.00;2.00;;;;;;;;4954364;28;45556;-73
2022/07/31 03:23:11;;;;;;;;;1.00;1.00;;;;;;;;4956025;28;47135;-73
2022/07/31 03:25:36;;;;;;;;;2.00;2.00;;;;;;;;4955789;28;45247;-73
2022/07/31 03:28:01;;;;;;;;;1.67;1.67;;;;;;;;4952970;28;45379;-74
2022/07/31 03:30:27;;;;;;;;;2.33;2.00;;;;;;;;4955771;28;45283;-73
2022/07/31 03:32:53;;;;;;;;;2.00;2.00;;;;;;;;4955323;28;46893;-73
2022/07/31 03:35:18;;;;;;;;;1.00;1.00;;;;;;;;4955367;28;45549;-73
2022/07/31 03:37:44;;;;;;;;;1.00;1.00;;;;;;;;4955939;28;45295;-73
2022/07/31 03:40:10;;;;;;;;;1.33;1.00;;;;;;;;4956153;28;45227;-73
2022/07/31 03:42:35;;;;;;;;;1.00;1.00;;;;;;;;4955649;28;46040;-73
2022/07/31 03:45:01;;;;;;;;;2.00;2.00;;;;;;;;4956049;28;45335;-73
2022/07/31 03:47:27;;;;;;;;;1.33;1.33;;;;;;;;4957712;28;45442;-73
2022/07/31 03:49:53;;;;;;;;;2.67;1.33;;;;;;;;4959061;28;45448;-73
2022/07/31 03:52:18;;;;;;;;;1.00;1.00;;;;;;;;4958386;28;46091;-74
2022/07/31 03:54:43;;;;;;;;;3.00;2.00;;;;;;;;4958898;28;45426;-74
2022/07/31 03:57:09;;;;;;;;;4.00;2.00;;;;;;;;4959307;28;45342;-73
2022/07/31 03:59:34;;;;;;;;;1.00;1.00;;;;;;;;4958989;28;45500;-73
2022/07/31 04:02:00;;;;;;;;;2.33;1.33;;;;;;;;4958702;28;46918;-73
2022/07/31 04:04:26;;;;;;;;;1.67;1.67;;;;;;;;4958674;28;45337;-73
2022/07/31 04:06:51;;;;;;;;;2.00;2.00;;;;;;;;4958631;28;45419;-73
2022/07/31 04:09:16;;;;;;;;;2.00;2.00;;;;;;;;4958986;28;45413;-73
2022/07/31 04:11:41;;;;;;;;;1.67;1.67;;;;;;;;4958422;28;45405;-73
2022/07/31 04:14:07;;;;;;;;;2.00;2.00;;;;;;;;4945520;28;45785;-73
2022/07/31 04:16:32;;;;;;;;;2.00;2.00;;;;;;;;4958840;28;45455;-73
2022/07/31 04:18:57;;;;;;;;;1.67;1.67;;;;;;;;4958737;28;45450;-74
2022/07/31 04:21:22;;;;;;;;;2.00;2.00;;;;;;;;4957999;28;47001;-74
2022/07/31 04:23:47;;;;;;;;;1.33;1.33;;;;;;;;4958701;28;45456;-73
2022/07/31 04:26:13;;;;;;;;;2.00;2.00;;;;;;;;4958599;28;45420;-73
2022/07/31 04:28:38;;;;;;;;;3.00;3.00;;;;;;;;4958161;28;45464;-74
2022/07/31 04:31:03;;;;;;;;;1.67;1.67;;;;;;;;4957946;28;46200;-74
2022/07/31 04:33:28;;;;;;;;;2.00;2.00;;;;;;;;4958312;28;45326;-74
2022/07/31 04:35:53;;;;;;;;;1.00;1.00;;;;;;;;4957226;28;45327;-73
2022/07/31 04:38:20;;;;;;;;;2.33;2.33;;;;;;;;4957814;28;45466;-73
2022/07/31 04:40:45;;;;;;;;;1.67;1.67;;;;;;;;4957866;28;46876;-73
2022/07/31 04:43:11;;;;;;;;;2.33;1.33;;;;;;;;4958155;28;45349;-73
2022/07/31 04:45:36;;;;;;;;;1.00;1.00;;;;;;;;4958153;28;45549;-71
2022/07/31 04:48:02;;;;;;;;;2.67;2.67;;;;;;;;4958412;28;45374;-73
2022/07/31 04:50:27;;;;;;;;;1.00;1.00;;;;;;;;4958036;28;45408;-73
2022/07/31 04:52:52;;;;;;;;;1.00;1.00;;;;;;;;4958162;28;45488;-73
2022/07/31 04:55:17;;;;;;;;;3.67;2.00;;;;;;;;4957816;28;45515;-73
2022/07/31 04:57:43;;;;;;;;;3.00;3.00;;;;;;;;4957456;28;45365;-73
2022/07/31 05:00:09;;;;;;;;;1.67;1.67;;;;;;;;4957553;28;47386;-73
2022/07/31 05:02:34;;;;;;;;;2.33;2.33;;;;;;;;4957441;28;45410;-73
2022/07/31 05:04:59;;;;;;;;;1.33;1.33;;;;;;;;4956848;28;45390;-73
2022/07/31 05:07:25;;;;;;;;;1.67;1.67;;;;;;;;4958089;28;45383;-73
2022/07/31 05:09:50;;;;;;;;;3.00;3.00;;;;;;;;4957895;28;46139;-73
2022/07/31 05:12:15;;;;;;;;;3.00;3.00;;;;;;;;4952881;28;45454;-73
2022/07/31 05:14:40;;;;;;;;;1.00;1.00;;;;;;;;4949027;28;45433;-73
2022/07/31 05:17:06;;;;;;;;;3.00;3.00;;;;;;;;4957761;28;45447;-74
2022/07/31 05:19:31;;;;;;;;;1.33;1.33;;;;;;;;4957258;28;45409;-73
2022/07/31 05:21:58;;;;;;;;;4.00;2.67;;;;;;;;4957650;28;45525;-73
2022/07/31 05:24:23;;;;;;;;;3.00;3.00;;;;;;;;4957896;28;45176;-73
2022/07/31 05:26:49;;;;;;;;;2.33;2.33;;;;;;;;4957516;28;45311;-73
2022/07/31 05:29:14;;;;;;;;;2.33;2.33;;;;;;;;4952988;28;47236;-73
2022/07/31 05:31:39;;;;;;;;;1.67;1.67;;;;;;;;4942042;28;45385;-73
2022/07/31 05:34:04;;;;;;;;;2.00;2.00;;;;;;;;4953654;28;45283;-73
2022/07/31 05:36:30;;;;;;;;;2.00;2.00;;;;;;;;4957350;28;45488;-73
2022/07/31 05:38:55;;;;;;;;;3.67;3.67;;;;;;;;4956508;28;45415;-73
2022/07/31 05:41:20;;;;;;;;;3.00;3.00;;;;;;;;4957651;28;45347;-73
2022/07/31 05:43:45;;;;;;;;;2.00;2.00;;;;;;;;4957593;28;45255;-73
2022/07/31 05:46:13;;;;;;;;;3.00;2.00;;;;;;;;4957301;28;45215;-73
2022/07/31 05:48:38;;;;;;;;;2.67;2.67;;;;;;;;4957196;28;46216;-73
2022/07/31 05:51:07;;;;;;;;;2.33;2.33;;;;;;;;4956980;28;45283;-73
2022/07/31 05:53:32;;;;;;;;;1.33;1.33;;;;;;;;4957524;28;45462;-73
2022/07/31 05:55:57;;;;;;;;;3.33;3.33;;;;;;;;4956814;28;45521;-73
2022/07/31 05:58:22;;;;;;;;;4.67;3.33;;;;;;;;4957071;28;46795;-73
2022/07/31 06:00:48;;;;;;;;;4.33;4.33;;;;;;;;4957129;28;45523;-73
2022/07/31 06:03:15;;;;;;;;;2.00;2.00;;;;;;;;4956309;28;45435;-73
2022/07/31 06:05:40;;;;;;;;;3.00;3.00;;;;;;;;4957215;28;45598;-73
2022/07/31 06:08:08;;;;;;;;;4.00;4.00;;;;;;;;4955052;28;46342;-73
2022/07/31 06:10:33;;;;;;;;;3.00;3.00;;;;;;;;4956930;28;45303;-73
2022/07/31 06:12:58;;;;;;;;;3.00;3.00;;;;;;;;4946467;28;45575;-73
2022/07/31 06:15:24;;;;;;;;;3.00;3.00;;;;;;;;4951160;28;46394;-73
2022/07/31 06:17:49;;;;;;;;;2.33;2.33;;;;;;;;4945576;28;45325;-73
2022/07/31 06:20:14;;;;;;;;;3.00;3.00;;;;;;;;4953196;28;45381;-72
2022/07/31 06:22:40;;;;;;;;;4.67;4.67;;;;;;;;4956988;28;45354;-72
2022/07/31 06:25:06;;;;;;;;;2.00;2.00;;;;;;;;4956961;28;45278;-73
2022/07/31 06:27:31;;;;;;;;;4.00;4.00;;;;;;;;4955053;28;48226;-72
2022/07/31 06:29:56;;;;;;;;;2.67;2.67;;;;;;;;4956752;28;45287;-73
2022/07/31 06:32:21;;;;;;;;;4.00;4.00;;;;;;;;4956038;28;45435;-73
2022/07/31 06:34:47;;;;;;;;;3.33;2.33;;;;;;;;4956166;28;45260;-72
2022/07/31 06:37:12;;;;;;;;;4.00;4.00;;;;;;;;4956276;28;46608;-73
2022/07/31 06:39:37;;;;;;;;;1.00;1.00;;;;;;;;4956730;28;45326;-73
2022/07/31 06:42:02;;;;;;;;;5.33;4.00;;;;;;;;4956653;28;45491;-73
2022/07/31 06:44:28;;;;;;;;;2.33;2.33;;;;;;;;4956427;28;45418;-73
2022/07/31 06:46:53;;;;;;;;;2.33;2.33;;;;;;;;4956257;28;45244;-73
2022/07/31 06:49:18;;;;;;;;;4.00;4.00;;;;;;;;4953973;28;45232;-73
2022/07/31 06:51:44;;;;;;;;;2.33;2.33;;;;;;;;4956735;28;45402;-73
2022/07/31 06:54:09;;;;;;;;;4.00;4.00;;;;;;;;4956685;28;45334;-72
2022/07/31 06:56:36;;;;;;;;;4.00;4.00;;;;;;;;4956131;28;47532;-73
2022/07/31 06:59:01;;;;;;;;;2.67;2.67;;;;;;;;4956501;28;45319;-73
2022/07/31 07:01:26;;;;;;;;;4.33;4.33;;;;;;;;4955700;28;45309;-72
2022/07/31 07:03:52;;;;;;;;;2.67;2.67;;;;;;;;4956250;28;45255;-73
2022/07/31 07:06:17;;;;;;;;;3.33;3.33;;;;;;;;4955877;28;45379;-73
2022/07/31 07:08:42;;;;;;;;;3.67;3.67;;;;;;;;4955984;28;45325;-73
2022/07/31 07:11:07;;;;;;;;;3.33;2.33;;;;;;;;4956449;28;45473;-73
2022/07/31 07:13:33;;;;;;;;;3.33;3.33;;;;;;;;4942541;28;45472;-73
2022/07/31 07:15:58;;;;;;;;;3.00;3.00;;;;;;;;4955727;28;46306;-73
2022/07/31 07:18:23;;;;;;;;;3.67;3.67;;;;;;;;4956055;28;45368;-73
2022/07/31 07:20:49;;;;;;;;;5.00;5.00;;;;;;;;4956118;28;45446;-73
2022/07/31 07:23:14;;;;;;;;;3.00;3.00;;;;;;;;4959544;28;45366;-72
2022/07/31 07:25:39;;;;;;;;;5.00;5.00;;;;;;;;4959310;28;46815;-72
2022/07/31 07:28:05;;;;;;;;;3.00;3.00;;;;;;;;4959253;28;45478;-72
2022/07/31 07:30:30;;;;;;;;;2.67;2.67;;;;;;;;4958983;28;45492;-73
2022/07/31 07:32:55;;;;;;;;;3.67;3.67;;;;;;;;4959429;28;45395;-72
2022/07/31 07:35:21;;;;;;;;;3.33;3.33;;;;;;;;4958172;28;46106;-73
2022/07/31 07:37:46;;;;;;;;;4.67;4.67;;;;;;;;4959309;28;45425;-73
2022/07/31 07:40:12;;;;;;;;;3.33;3.33;;;;;;;;4959429;28;45376;-73
2022/07/31 07:42:37;;;;;;;;;4.00;4.00;;;;;;;;4959262;28;45417;-73
2022/07/31 07:45:03;;;;;;;;;4.00;4.00;;;;;;;;4958806;28;45402;-73
2022/07/31 07:47:28;;;;;;;;;4.00;4.00;;;;;;;;4959167;28;45411;-72
2022/07/31 07:49:53;;;;;;;;;4.00;4.00;;;;;;;;4954919;28;45369;-73
2022/07/31 07:52:18;;;;;;;;;3.00;3.00;;;;;;;;4952166;28;45299;-73
2022/07/31 07:54:43;;;;;;;;;4.67;4.67;;;;;;;;4954353;28;46323;-73
2022/07/31 07:57:12;;;;;;;;;4.00;4.00;;;;;;;;4949969;28;45275;-73
2022/07/31 07:59:38;;;;;;;;;1.67;1.67;;;;;;;;4958713;28;45365;-73
2022/07/31 08:02:03;;;;;;;;;3.00;3.00;;;;;;;;4958963;28;45400;-72
2022/07/31 08:04:28;;;;;;;;;2.67;2.67;;;;;;;;4958391;28;46979;-73
2022/07/31 08:06:53;;;;;;;;;2.67;2.67;;;;;;;;4958933;28;45439;-73
2022/07/31 08:09:21;;;;;;;;;6.00;4.00;;;;;;;;4958790;28;45445;-73
2022/07/31 08:11:47;;;;;;;;;5.00;5.00;;;;;;;;4956808;28;45334;-73
2022/07/31 08:14:12;;;;;;;;;4.00;4.00;;;;;;;;4945504;28;46446;-73
2022/07/31 08:16:37;;;;;;;;;4.67;3.67;;;;;;;;4958814;28;45450;-72
2022/07/31 08:19:02;;;;;;;;;4.00;3.33;;;;;;;;4958602;28;45226;-73
2022/07/31 08:21:27;;;;;;;;;3.33;3.33;;;;;;;;4958734;28;45360;-73
2022/07/31 08:23:53;;;;;;;;;4.00;4.00;;;;;;;;4958434;28;47059;-72
2022/07/31 08:26:18;;;;;;;;;3.00;3.00;;;;;;;;4958485;28;45505;-73
2022/07/31 08:28:43;;;;;;;;;6.00;4.67;;;;;;;;4958221;28;45442;-73
2022/07/31 08:31:08;;;;;;;;;3.00;3.00;;;;;;;;4958309;28;45298;-73
2022/07/31 08:33:33;;;;;;;;;4.00;4.00;;;;;;;;4957655;28;45336;-72
2022/07/31 08:35:59;;;;;;;;;3.00;3.00;;;;;;;;4957813;28;45518;-73
2022/07/31 08:38:25;;;;;;;;;4.33;4.33;;;;;;;;4957911;28;45584;-72
2022/07/31 08:40:50;;;;;;;;;2.00;2.00;;;;;;;;4958425;28;45340;-73
2022/07/31 08:43:15;;;;;;;;;4.00;4.00;;;;;;;;4958028;28;46058;-72
2022/07/31 08:45:41;;;;;;;;;5.00;3.33;;;;;;;;4958251;28;45223;-73
2022/07/31 08:48:07;;;;;;;;;3.00;3.00;;;;;;;;4958289;28;45333;-73
2022/07/31 08:50:33;;;;;;;;;4.00;4.00;;;;;;;;4958394;28;45480;-73
2022/07/31 08:52:59;;;;;;;;;2.33;2.33;;;;;;;;4957731;28;45326;-73
2022/07/31 08:55:24;;;;;;;;;4.00;4.00;;;;;;;;4957804;28;45291;-72
2022/07/31 08:57:50;;;;;;;;;3.33;3.33;;;;;;;;4957838;28;45355;-73
2022/07/31 09:00:16;;;;;;;;;3.00;3.00;;;;;;;;4958185;28;45314;-73
2022/07/31 09:02:42;;;;;;;;;5.00;5.00;;;;;;;;4957426;28;46003;-73
2022/07/31 09:05:07;;;;;;;;;4.67;3.67;;;;;;;;4957774;28;45356;-73
2022/07/31 09:07:33;;;;;;;;;1.00;1.00;;;;;;;;4957926;28;45340;-72
2022/07/31 09:09:58;;;;;;;;;3.00;3.00;;;;;;;;4957874;28;45390;-73
2022/07/31 09:12:27;;;;;;;;;4.00;4.00;;;;;;;;4951332;28;46162;-74
2022/07/31 09:14:52;;;;;;;;;4.00;3.00;;;;;;;;4950298;28;45354;-71
2022/07/31 09:17:18;;;;;;;;;3.00;3.00;;;;;;;;4957751;28;45398;-72
2022/07/31 09:19:44;;;;;;;;;3.67;3.67;;;;;;;;4957954;28;45558;-73
2022/07/31 09:22:22;;;;;;;;;3.33;3.33;;;;;;;;4957552;28;46832;-73
2022/07/31 09:24:47;;;;;;;;;4.00;4.00;;;;;;;;4952628;28;45681;-73
2022/07/31 09:27:16;;;;;;;;;3.00;3.00;;;;;;;;4953089;28;45387;-73
2022/07/31 09:29:42;;;;;;;;;3.00;3.00;;;;;;;;4957580;28;45498;-73
2022/07/31 09:32:08;;;;;;;;;4.67;4.00;;;;;;;;4956922;28;46128;-73
2022/07/31 09:34:34;;;;;;;;;4.33;4.33;;;;;;;;4956968;28;45476;-72
2022/07/31 09:37:08;;;;;;;;;1.33;1.33;;;;;;;;4957380;28;45306;-72
2022/07/31 09:39:34;;;;;;;;;2.33;2.33;;;;;;;;4956718;28;45735;-73
2022/07/31 09:41:59;;;;;;;;;2.00;2.00;;;;;;;;4956879;28;46143;-72
2022/07/31 09:44:33;;;;;;;;;2.67;2.67;;;;;;;;4956777;28;45365;-73
2022/07/31 09:46:58;;;;;;;;;3.00;3.00;;;;;;;;4957568;28;45464;-72
2022/07/31 09:49:31;;;;;;;;;2.67;2.67;;;;;;;;4957279;28;45282;-73
2022/07/31 09:51:56;;;;;;;;;3.33;3.33;;;;;;;;4956971;28;46540;-73
2022/07/31 09:54:22;;;;;;;;;4.00;4.00;;;;;;;;4956985;28;45424;-73
2022/07/31 09:56:49;;;;;;;;;2.00;2.00;;;;;;;;4972138;28;45598;-73
2022/07/31 09:59:14;;;;;;;;;3.00;3.00;;;;;;;;4957221;28;45363;-73
2022/07/31 10:01:40;;;;;;;;;2.33;2.33;;;;;;;;4956883;28;46190;-73
2022/07/31 10:04:05;;;;;;;;;2.67;2.67;;;;;;;;4956922;28;45796;-73
2022/07/31 10:06:33;;;;;;;;;4.00;4.00;;;;;;;;4957209;28;45350;-72
2022/07/31 10:09:00;;;;;;;;;3.00;3.00;;;;;;;;4957004;28;45421;-72
2022/07/31 10:11:27;;;;;;;;;3.67;3.67;;;;;;;;4955506;28;46310;-73
2022/07/31 10:13:55;;;;;;;;;4.00;4.00;;;;;;;;4943332;28;45476;-73
2022/07/31 10:16:21;;;;;;;;;5.00;4.00;;;;;;;;4956977;28;45473;-73
2022/07/31 10:18:51;;;;;;;;;3.00;3.00;;;;;;;;4956764;28;45342;-72
2022/07/31 10:21:16;;;;;;;;;3.00;3.00;;;;;;;;4956717;28;46101;-73
2022/07/31 10:23:43;;;;;;;;;2.33;2.33;;;;;;;;4956410;28;45316;-73
2022/07/31 10:26:08;;;;;;;;;2.00;2.00;;;;;;;;4949838;28;45409;-72
2022/07/31 10:28:37;;;;;;;;;2.00;2.00;;;;;;;;4950265;28;45522;-73
2022/07/31 10:31:02;;;;;;;;;3.00;3.00;;;;;;;;4956735;28;46163;-73
2022/07/31 10:33:28;;;;;;;;;3.67;3.67;;;;;;;;4956654;28;45386;-73
2022/07/31 10:35:53;;;;;;;;;1.67;1.67;;;;;;;;4956071;28;45437;-72
2022/07/31 10:38:22;;;;;;;;;5.00;5.00;;;;;;;;4956370;28;45289;-73
2022/07/31 10:40:56;;;;;;;;;3.33;3.33;;;;;;;;4956198;28;46262;-73
2022/07/31 10:43:24;;;;;;;;;1.67;1.67;;;;;;;;4954525;28;45353;-73
2022/07/31 10:45:51;;;;;;;;;3.00;3.00;;;;;;;;4942054;28;45485;-72
2022/07/31 10:48:17;;;;;;;;;3.67;3.67;;;;;;;;4938078;28;45466;-73
2022/07/31 10:50:42;;;;;;;;;3.00;3.00;;;;;;;;4952663;28;46505;-73
2022/07/31 10:53:09;;;;;;;;;3.00;3.00;;;;;;;;4951619;28;45322;-73
2022/07/31 10:55:34;;;;;;;;;3.00;3.00;;;;;;;;4952433;28;45433;-73
2022/07/31 10:58:06;;;;;;;;;3.00;3.00;;;;;;;;4958524;28;45494;-73
2022/07/31 11:00:32;;;;;;;;;2.00;0.67;;;;;;;;4959136;28;46150;-73
2022/07/31 11:02:57;;;;;;;;;0.00;0.00;;;;;;;;4959478;28;45432;-73
2022/07/31 11:05:24;;;;;;;;;0.00;0.00;;;;;;;;4959447;28;45262;-73
2022/07/31 11:08:03;;;;;;;;;0.00;0.00;;;;;;;;4959424;28;45274;-73
2022/07/31 11:10:28;;;;;;;;;1.33;1.00;;;;;;;;4959532;28;47118;-72
2022/07/31 11:12:59;;;;;;;;;0.00;0.00;;;;;;;;4959252;28;45481;-73
2022/07/31 11:15:25;;;;;;;;;0.00;0.00;;;;;;;;4959753;28;45337;-72
2022/07/31 11:17:51;;;;;;;;;2.00;2.00;;;;;;;;4959437;28;45416;-72
2022/07/31 11:20:36;;;;;;;;;0.00;0.00;;;;;;;;4959599;28;46229;-72
2022/07/31 11:23:03;;;;;;;;;1.00;1.00;;;;;;;;4955822;28;45488;-72
2022/07/31 11:25:29;;;;;;;;;1.00;1.00;;;;;;;;4948273;28;45386;-72
2022/07/31 11:28:08;;;;;;;;;0.00;0.00;;;;;;;;4955082;28;45347;-72
2022/07/31 11:30:34;;;;;;;;;2.00;2.00;;;;;;;;4958791;28;47199;-72
2022/07/31 11:32:59;;;;;;;;;1.00;1.00;;;;;;;;4958572;28;45565;-72
2022/07/31 11:35:29;;;;;;;;;1.67;1.67;;;;;;;;4958834;28;45317;-72
2022/07/31 11:37:55;;;;;;;;;0.33;0.33;;;;;;;;4952979;28;45419;-73
2022/07/31 11:40:20;;;;;;;;;2.00;0.33;;;;;;;;4944381;28;46115;-73
2022/07/31 11:42:46;;;;;;;;;1.00;1.00;;;;;;;;4955968;28;45410;-72
2022/07/31 11:45:13;;;;;;;;;0.00;0.00;;;;;;;;4958711;28;45418;-73
2022/07/31 11:47:45;;;;;;;;;1.67;1.67;;;;;;;;4959170;28;45335;-75
2022/07/31 11:50:11;;;;;;;;;0.33;0.33;;;;;;;;4955459;28;46176;-75
2022/07/31 11:52:37;;;;;;;;;0.67;0.67;;;;;;;;4954455;28;45404;-73
2022/07/31 11:55:04;;;;;;;;;0.00;0.00;;;;;;;;4950318;28;45411;-73
2022/07/31 11:57:32;;;;;;;;;0.00;0.00;;;;;;;;4953130;28;45449;-73
2022/07/31 11:59:57;;;;;;;;;0.33;0.33;;;;;;;;4951167;28;46326;-72
2022/07/31 12:02:24;;;;;;;;;1.00;1.00;;;;;;;;4951687;28;45477;-75
2022/07/31 12:04:49;;;;;;;;;1.00;1.00;;;;;;;;4948389;28;45362;-74
2022/07/31 12:07:15;;;;;;;;;1.33;1.33;;;;;;;;4955632;28;45413;-75
2022/07/31 12:09:41;;;;;;;;;0.33;0.33;;;;;;;;4957980;28;46465;-74
2022/07/31 12:12:06;;;;;;;;;1.00;1.00;;;;;;;;4958546;28;45807;-74
2022/07/31 12:14:33;;;;;;;;;3.00;1.00;;;;;;;;4958068;28;45425;-74
2022/07/31 12:16:59;;;;;;;;;2.00;2.00;;;;;;;;4958024;28;45354;-75
2022/07/31 12:19:24;;;;;;;;;2.00;2.00;;;;;;;;4957984;28;45442;-75
2022/07/31 12:21:50;;;;;;;;;2.00;2.00;;;;;;;;4958585;28;45314;-74
2022/07/31 12:24:15;;;;;;;;;1.00;1.00;;;;;;;;4958404;28;45532;-76
2022/07/31 12:26:48;;;;;;;;;0.00;0.00;;;;;;;;4958960;28;45430;-75
2022/07/31 12:29:13;;;;;;;;;0.67;0.67;;;;;;;;4958081;28;46195;-74
2022/07/31 12:31:43;;;;;;;;;1.00;1.00;;;;;;;;4958092;28;45358;-73
2022/07/31 12:34:08;;;;;;;;;1.00;1.00;;;;;;;;4955227;28;45405;-75
2022/07/31 12:36:33;;;;;;;;;0.00;0.00;;;;;;;;4956912;28;45493;-74
2022/07/31 12:38:59;;;;;;;;;1.00;1.00;;;;;;;;4955636;28;45445;-74
2022/07/31 12:41:25;;;;;;;;;3.00;1.00;;;;;;;;4955625;28;45845;-73
2022/07/31 12:43:51;;;;;;;;;1.00;1.00;;;;;;;;4949374;28;45387;-73
2022/07/31 12:46:16;;;;;;;;;1.00;1.00;;;;;;;;4943229;28;45385;-73
2022/07/31 12:48:41;;;;;;;;;1.00;1.00;;;;;;;;4957762;28;47147;-71
2022/07/31 12:51:06;;;;;;;;;1.00;1.00;;;;;;;;4957871;28;45430;-73
2022/07/31 12:53:31;;;;;;;;;1.00;1.00;;;;;;;;4949130;28;45437;-75
2022/07/31 12:55:57;;;;;;;;;2.00;2.00;;;;;;;;4954603;28;45397;-74
2022/07/31 12:58:22;;;;;;;;;1.00;1.00;;;;;;;;4955307;28;47232;-73
2022/07/31 13:00:47;;;;;;;;;0.33;0.33;;;;;;;;4957947;28;45382;-75
2022/07/31 13:03:13;;;;;;;;;1.67;1.67;;;;;;;;4946697;28;46401;-75
2022/07/31 13:05:38;;;;;;;;;1.00;1.00;;;;;;;;4950023;28;45508;-76
2022/07/31 13:08:03;;;;;;;;;1.00;1.00;;;;;;;;4950933;28;45507;-75
2022/07/31 13:10:28;;;;;;;;;0.33;0.33;;;;;;;;4952766;28;45266;-75
2022/07/31 13:12:54;;;;;;;;;2.33;1.00;;;;;;;;4947139;28;45469;-75
2022/07/31 13:15:22;;;;;;;;;1.00;1.00;;;;;;;;4957529;28;45505;-75
2022/07/31 13:17:47;;;;;;;;;1.00;1.00;;;;;;;;4957072;28;46367;-75
2022/07/31 13:20:12;;;;;;;;;1.67;1.33;;;;;;;;4954018;28;45330;-74
2022/07/31 13:22:37;;;;;;;;;1.00;1.00;;;;;;;;4953812;28;45386;-75
2022/07/31 13:25:04;;;;;;;;;1.00;1.00;;;;;;;;4954398;28;45474;-75
2022/07/31 13:27:29;;;;;;;;;0.33;0.33;;;;;;;;4957049;28;45448;-75
2022/07/31 13:29:54;;;;;;;;;0.67;0.67;;;;;;;;4957276;28;45450;-74
2022/07/31 13:32:19;;;;;;;;;2.00;1.00;;;;;;;;4952287;28;45466;-74
2022/07/31 13:34:45;;;;;;;;;1.67;1.67;;;;;;;;4950665;28;45516;-76
2022/07/31 13:37:10;;;;;;;;;1.00;1.00;;;;;;;;4955439;28;46142;-75
2022/07/31 13:39:35;;;;;;;;;0.00;0.00;;;;;;;;4949077;28;45698;-75
2022/07/31 13:42:00;;;;;;;;;0.33;0.33;;;;;;;;4952681;28;45302;-75
2022/07/31 13:44:25;;;;;;;;;0.33;0.33;;;;;;;;4955375;28;45325;-74
2022/07/31 13:46:51;;;;;;;;;3.00;2.00;;;;;;;;4951544;28;46169;-74
2022/07/31 13:49:16;;;;;;;;;2.00;2.00;;;;;;;;4953416;28;45410;-75
2022/07/31 13:51:41;;;;;;;;;2.00;2.00;;;;;;;;4956451;28;45363;-74
2022/07/31 13:54:07;;;;;;;;;2.33;2.33;;;;;;;;4954057;28;45289;-74
2022/07/31 13:56:32;;;;;;;;;2.00;2.00;;;;;;;;4955329;28;46026;-74
2022/07/31 13:58:57;;;;;;;;;3.00;3.00;;;;;;;;4951054;28;45360;-75
2022/07/31 14:01:23;;;;;;;;;3.67;3.67;;;;;;;;4941505;28;45353;-74
2022/07/31 14:03:48;;;;;;;;;2.00;2.00;;;;;;;;4951211;28;45587;-75
2022/07/31 14:06:13;;;;;;;;;6.00;4.00;;;;;;;;4953824;28;45992;-75
2022/07/31 14:08:38;;;;;;;;;3.67;3.67;;;;;;;;4948620;28;45531;-75
2022/07/31 14:11:04;;;;;;;;;2.00;2.00;;;;;;;;4947068;28;45457;-74
2022/07/31 14:13:29;;;;;;;;;3.00;3.00;;;;;;;;4953027;28;45579;-74
2022/07/31 14:15:54;;;;;;;;;2.00;1.67;;;;;;;;4952111;28;45421;-74
2022/07/31 14:18:21;;;;;;;;;2.33;2.33;;;;;;;;4949487;28;45309;-74
2022/07/31 14:20:46;;;;;;;;;2.00;2.00;;;;;;;;4948361;28;45340;-75
2022/07/31 14:23:11;;;;;;;;;2.00;2.00;;;;;;;;4948411;28;45490;-74
2022/07/31 14:25:37;;;;;;;;;2.00;2.00;;;;;;;;4947030;28;46164;-75
2022/07/31 14:28:03;;;;;;;;;1.33;1.33;;;;;;;;4953765;28;45517;-75
2022/07/31 14:30:30;;;;;;;;;1.00;1.00;;;;;;;;4950166;28;45441;-75
2022/07/31 14:32:55;;;;;;;;;1.00;1.00;;;;;;;;4955067;28;46149;-74
2022/07/31 14:35:20;;;;;;;;;0.33;0.33;;;;;;;;4953680;28;46284;-74